sensor_id;sensor_type;location;lat;lon;timestamp;pressure;altitude;pressure_sealevel;temperature
13304;BMP280;6720;51.958;4.540;2023-11-21T00:01:35;100955.03;;;12.04
13304;BMP280;6720;51.958;4.540;2023-11-21T00:04:00;100945.00;;;12.22
13304;BMP280;6720;51.958;4.540;2023-11-21T00:06:26;100949.53;;;12.14
13304;BMP280;6720;51.958;4.540;2023-11-21T00:08:52;100949.78;;;12.04
13304;BMP280;6720;51.958;4.540;2023-11-21T00:11:17;100953.75;;;12.23
13304;BMP280;6720;51.958;4.540;2023-11-21T00:13:43;100957.03;;;12.32
13304;BMP280;6720;51.958;4.540;2023-11-21T00:16:09;100962.88;;;12.45
13304;BMP280;6720;51.958;4.540;2023-11-21T00:18:34;100960.81;;;12.57
13304;BMP280;6720;51.958;4.540;2023-11-21T00:20:59;100963.91;;;12.74
13304;BMP280;6720;51.958;4.540;2023-11-21T00:23:25;100958.50;;;12.82
13304;BMP280;6720;51.958;4.540;2023-11-21T00:25:50;100964.22;;;12.97
13304;BMP280;6720;51.958;4.540;2023-11-21T00:28:16;100965.97;;;12.98
13304;BMP280;6720;51.958;4.540;2023-11-21T00:30:41;100955.31;;;13.04
13304;BMP280;6720;51.958;4.540;2023-11-21T00:33:07;100956.72;;;13.17
13304;BMP280;6720;51.958;4.540;2023-11-21T00:35:32;100955.63;;;13.26
13304;BMP280;6720;51.958;4.540;2023-11-21T00:37:57;100957.22;;;13.31
13304;BMP280;6720;51.958;4.540;2023-11-21T00:40:23;100960.72;;;13.33
13304;BMP280;6720;51.958;4.540;2023-11-21T00:42:50;100964.91;;;13.40
13304;BMP280;6720;51.958;4.540;2023-11-21T00:45:15;100969.28;;;13.40
13304;BMP280;6720;51.958;4.540;2023-11-21T00:47:41;100962.22;;;13.42
13304;BMP280;6720;51.958;4.540;2023-11-21T00:50:08;100970.38;;;13.31
13304;BMP280;6720;51.958;4.540;2023-11-21T00:52:34;100968.22;;;13.13
13304;BMP280;6720;51.958;4.540;2023-11-21T00:55:01;100972.50;;;13.17
13304;BMP280;6720;51.958;4.540;2023-11-21T00:57:28;100969.75;;;13.22
13304;BMP280;6720;51.958;4.540;2023-11-21T00:59:53;100977.28;;;13.35
13304;BMP280;6720;51.958;4.540;2023-11-21T01:02:19;100968.81;;;13.24
13304;BMP280;6720;51.958;4.540;2023-11-21T01:04:45;100975.44;;;13.05
13304;BMP280;6720;51.958;4.540;2023-11-21T01:07:10;100985.84;;;13.10
13304;BMP280;6720;51.958;4.540;2023-11-21T01:09:36;100986.97;;;13.35
13304;BMP280;6720;51.958;4.540;2023-11-21T01:12:01;100980.69;;;13.40
13304;BMP280;6720;51.958;4.540;2023-11-21T01:14:27;100984.38;;;13.33
13304;BMP280;6720;51.958;4.540;2023-11-21T01:16:53;100982.72;;;13.29
13304;BMP280;6720;51.958;4.540;2023-11-21T01:19:18;100988.91;;;13.27
13304;BMP280;6720;51.958;4.540;2023-11-21T01:21:44;100986.72;;;13.44
13304;BMP280;6720;51.958;4.540;2023-11-21T01:24:09;100998.00;;;13.47
13304;BMP280;6720;51.958;4.540;2023-11-21T01:26:35;100992.50;;;13.56
13304;BMP280;6720;51.958;4.540;2023-11-21T01:29:00;100998.47;;;13.63
13304;BMP280;6720;51.958;4.540;2023-11-21T01:31:25;100996.88;;;13.57
13304;BMP280;6720;51.958;4.540;2023-11-21T01:33:54;101001.06;;;13.64
13304;BMP280;6720;51.958;4.540;2023-11-21T01:36:20;101009.47;;;13.78
13304;BMP280;6720;51.958;4.540;2023-11-21T01:38:46;101010.34;;;13.77
13304;BMP280;6720;51.958;4.540;2023-11-21T01:41:13;101013.47;;;13.91
13304;BMP280;6720;51.958;4.540;2023-11-21T01:43:39;101002.63;;;14.02
13304;BMP280;6720;51.958;4.540;2023-11-21T01:46:05;101011.97;;;14.13
13304;BMP280;6720;51.958;4.540;2023-11-21T01:48:31;101020.06;;;14.06
13304;BMP280;6720;51.958;4.540;2023-11-21T01:50:57;101026.00;;;14.14
13304;BMP280;6720;51.958;4.540;2023-11-21T01:53:24;101028.94;;;14.02
13304;BMP280;6720;51.958;4.540;2023-11-21T01:55:51;101035.44;;;13.90
13304;BMP280;6720;51.958;4.540;2023-11-21T01:58:17;101038.00;;;13.93
13304;BMP280;6720;51.958;4.540;2023-11-21T02:00:42;101038.19;;;13.86
13304;BMP280;6720;51.958;4.540;2023-11-21T02:03:08;101039.22;;;13.80
13304;BMP280;6720;51.958;4.540;2023-11-21T02:05:35;101037.56;;;13.76
13304;BMP280;6720;51.958;4.540;2023-11-21T02:08:01;101040.09;;;13.81
13304;BMP280;6720;51.958;4.540;2023-11-21T02:10:27;101038.50;;;13.74
13304;BMP280;6720;51.958;4.540;2023-11-21T02:12:54;101039.84;;;13.88
13304;BMP280;6720;51.958;4.540;2023-11-21T02:15:21;101039.94;;;13.85
13304;BMP280;6720;51.958;4.540;2023-11-21T02:17:49;101040.63;;;13.93
13304;BMP280;6720;51.958;4.540;2023-11-21T02:20:17;101042.94;;;13.72
13304;BMP280;6720;51.958;4.540;2023-11-21T02:22:44;101045.16;;;13.87
13304;BMP280;6720;51.958;4.540;2023-11-21T02:25:10;101047.94;;;13.82
13304;BMP280;6720;51.958;4.540;2023-11-21T02:27:36;101041.59;;;13.89
13304;BMP280;6720;51.958;4.540;2023-11-21T02:30:03;101046.19;;;13.81
13304;BMP280;6720;51.958;4.540;2023-11-21T02:32:30;101049.31;;;13.95
13304;BMP280;6720;51.958;4.540;2023-11-21T02:34:57;101050.97;;;13.99
13304;BMP280;6720;51.958;4.540;2023-11-21T02:37:26;101042.16;;;14.00
13304;BMP280;6720;51.958;4.540;2023-11-21T02:39:51;101045.47;;;14.08
13304;BMP280;6720;51.958;4.540;2023-11-21T02:42:17;101047.19;;;14.09
13304;BMP280;6720;51.958;4.540;2023-11-21T02:44:43;101040.28;;;14.05
13304;BMP280;6720;51.958;4.540;2023-11-21T02:47:08;101050.88;;;14.02
13304;BMP280;6720;51.958;4.540;2023-11-21T02:49:34;101041.91;;;14.09
13304;BMP280;6720;51.958;4.540;2023-11-21T02:52:01;101049.81;;;14.09
13304;BMP280;6720;51.958;4.540;2023-11-21T02:54:26;101053.56;;;14.01
13304;BMP280;6720;51.958;4.540;2023-11-21T02:56:52;101056.16;;;14.02
13304;BMP280;6720;51.958;4.540;2023-11-21T02:59:18;101059.84;;;13.95
13304;BMP280;6720;51.958;4.540;2023-11-21T03:01:45;101058.81;;;14.01
13304;BMP280;6720;51.958;4.540;2023-11-21T03:04:11;101061.50;;;13.99
13304;BMP280;6720;51.958;4.540;2023-11-21T03:06:40;101059.84;;;13.95
13304;BMP280;6720;51.958;4.540;2023-11-21T03:09:06;101056.72;;;13.81
13304;BMP280;6720;51.958;4.540;2023-11-21T03:11:31;101059.78;;;13.98
13304;BMP280;6720;51.958;4.540;2023-11-21T03:13:57;101064.38;;;14.22
13304;BMP280;6720;51.958;4.540;2023-11-21T03:16:22;101067.56;;;14.33
13304;BMP280;6720;51.958;4.540;2023-11-21T03:18:48;101059.94;;;14.24
13304;BMP280;6720;51.958;4.540;2023-11-21T03:21:13;101060.50;;;14.35
13304;BMP280;6720;51.958;4.540;2023-11-21T03:23:39;101065.31;;;14.20
13304;BMP280;6720;51.958;4.540;2023-11-21T03:26:05;101064.31;;;14.25
13304;BMP280;6720;51.958;4.540;2023-11-21T03:28:33;101073.44;;;14.12
13304;BMP280;6720;51.958;4.540;2023-11-21T03:30:59;101074.56;;;14.02
13304;BMP280;6720;51.958;4.540;2023-11-21T03:33:24;101081.94;;;14.23
13304;BMP280;6720;51.958;4.540;2023-11-21T03:35:49;101083.56;;;14.27
13304;BMP280;6720;51.958;4.540;2023-11-21T03:38:15;101085.81;;;14.41
13304;BMP280;6720;51.958;4.540;2023-11-21T03:40:41;101088.28;;;14.45
13304;BMP280;6720;51.958;4.540;2023-11-21T03:43:07;101094.34;;;14.49
13304;BMP280;6720;51.958;4.540;2023-11-21T03:45:32;101095.13;;;14.52
13304;BMP280;6720;51.958;4.540;2023-11-21T03:47:57;101102.13;;;14.53
13304;BMP280;6720;51.958;4.540;2023-11-21T03:50:23;101100.31;;;14.55
13304;BMP280;6720;51.958;4.540;2023-11-21T03:52:48;101099.34;;;14.58
13304;BMP280;6720;51.958;4.540;2023-11-21T03:55:14;101103.56;;;14.63
13304;BMP280;6720;51.958;4.540;2023-11-21T03:57:40;101111.28;;;14.40
13304;BMP280;6720;51.958;4.540;2023-11-21T04:00:06;101112.47;;;14.59
13304;BMP280;6720;51.958;4.540;2023-11-21T04:02:34;101112.47;;;14.59
13304;BMP280;6720;51.958;4.540;2023-11-21T04:04:59;101107.41;;;14.53
13304;BMP280;6720;51.958;4.540;2023-11-21T04:07:25;101112.28;;;14.67
13304;BMP280;6720;51.958;4.540;2023-11-21T04:09:50;101117.13;;;14.81
13304;BMP280;6720;51.958;4.540;2023-11-21T04:12:15;101120.66;;;14.79
13304;BMP280;6720;51.958;4.540;2023-11-21T04:14:41;101126.13;;;14.73
13304;BMP280;6720;51.958;4.540;2023-11-21T04:17:06;101130.28;;;14.82
13304;BMP280;6720;51.958;4.540;2023-11-21T04:19:32;101125.00;;;14.82
13304;BMP280;6720;51.958;4.540;2023-11-21T04:21:57;101124.84;;;14.57
13304;BMP280;6720;51.958;4.540;2023-11-21T04:24:23;101123.63;;;14.69
13304;BMP280;6720;51.958;4.540;2023-11-21T04:26:48;101136.59;;;14.77
13304;BMP280;6720;51.958;4.540;2023-11-21T04:29:13;101135.66;;;14.77
13304;BMP280;6720;51.958;4.540;2023-11-21T04:31:39;101138.94;;;14.86
13304;BMP280;6720;51.958;4.540;2023-11-21T04:34:04;101145.72;;;14.94
13304;BMP280;6720;51.958;4.540;2023-11-21T04:36:30;101142.25;;;14.92
13304;BMP280;6720;51.958;4.540;2023-11-21T04:38:58;101150.00;;;14.98
13304;BMP280;6720;51.958;4.540;2023-11-21T04:41:23;101155.22;;;15.00
13304;BMP280;6720;51.958;4.540;2023-11-21T04:43:49;101150.03;;;14.97
13304;BMP280;6720;51.958;4.540;2023-11-21T04:46:15;101154.53;;;14.93
13304;BMP280;6720;51.958;4.540;2023-11-21T04:48:41;101161.34;;;15.00
13304;BMP280;6720;51.958;4.540;2023-11-21T04:51:06;101158.66;;;15.02
13304;BMP280;6720;51.958;4.540;2023-11-21T04:53:32;101167.34;;;15.05
13304;BMP280;6720;51.958;4.540;2023-11-21T04:55:57;101166.44;;;15.06
13304;BMP280;6720;51.958;4.540;2023-11-21T04:58:24;101170.06;;;15.02
13304;BMP280;6720;51.958;4.540;2023-11-21T05:00:49;101170.06;;;15.02
13304;BMP280;6720;51.958;4.540;2023-11-21T05:03:15;101184.13;;;15.03
13304;BMP280;6720;51.958;4.540;2023-11-21T05:05:40;101182.25;;;15.06
13304;BMP280;6720;51.958;4.540;2023-11-21T05:08:05;101193.69;;;15.07
13304;BMP280;6720;51.958;4.540;2023-11-21T05:10:31;101183.84;;;15.12
13304;BMP280;6720;51.958;4.540;2023-11-21T05:12:56;101189.84;;;15.17
13304;BMP280;6720;51.958;4.540;2023-11-21T05:15:22;101187.25;;;15.15
13304;BMP280;6720;51.958;4.540;2023-11-21T05:17:48;101192.19;;;15.27
13304;BMP280;6720;51.958;4.540;2023-11-21T05:20:15;101194.56;;;15.35
13304;BMP280;6720;51.958;4.540;2023-11-21T05:22:47;101198.31;;;15.28
13304;BMP280;6720;51.958;4.540;2023-11-21T05:25:16;101203.50;;;15.31
13304;BMP280;6720;51.958;4.540;2023-11-21T05:27:46;101198.22;;;15.31
13304;BMP280;6720;51.958;4.540;2023-11-21T05:30:12;101200.00;;;15.29
13304;BMP280;6720;51.958;4.540;2023-11-21T05:32:38;101209.06;;;15.22
13304;BMP280;6720;51.958;4.540;2023-11-21T05:35:04;101207.50;;;15.15
13304;BMP280;6720;51.958;4.540;2023-11-21T05:37:35;101214.59;;;15.13
13304;BMP280;6720;51.958;4.540;2023-11-21T05:40:01;101216.50;;;15.08
13304;BMP280;6720;51.958;4.540;2023-11-21T05:42:31;101218.50;;;15.00
13304;BMP280;6720;51.958;4.540;2023-11-21T05:44:57;101225.41;;;15.04
13304;BMP280;6720;51.958;4.540;2023-11-21T05:47:24;101241.31;;;15.01
13304;BMP280;6720;51.958;4.540;2023-11-21T05:49:51;101246.59;;;15.01
13304;BMP280;6720;51.958;4.540;2023-11-21T05:52:17;101238.19;;;14.87
13304;BMP280;6720;51.958;4.540;2023-11-21T05:54:43;101245.22;;;14.88
13304;BMP280;6720;51.958;4.540;2023-11-21T05:57:08;101243.47;;;14.87
13304;BMP280;6720;51.958;4.540;2023-11-21T05:59:34;101254.78;;;14.92
13304;BMP280;6720;51.958;4.540;2023-11-21T06:01:59;101254.78;;;14.92
13304;BMP280;6720;51.958;4.540;2023-11-21T06:04:25;101252.81;;;14.98
13304;BMP280;6720;51.958;4.540;2023-11-21T06:06:51;101259.13;;;14.93
13304;BMP280;6720;51.958;4.540;2023-11-21T06:09:18;101260.94;;;14.91
13304;BMP280;6720;51.958;4.540;2023-11-21T06:11:43;101273.22;;;14.92
13304;BMP280;6720;51.958;4.540;2023-11-21T06:14:09;101272.44;;;14.88
13304;BMP280;6720;51.958;4.540;2023-11-21T06:16:35;101280.38;;;14.87
13304;BMP280;6720;51.958;4.540;2023-11-21T06:19:00;101282.00;;;14.91
13304;BMP280;6720;51.958;4.540;2023-11-21T06:21:26;101281.09;;;14.93
13304;BMP280;6720;51.958;4.540;2023-11-21T06:23:51;101289.69;;;15.00
13304;BMP280;6720;51.958;4.540;2023-11-21T06:26:18;101287.00;;;15.01
13304;BMP280;6720;51.958;4.540;2023-11-21T06:28:44;101286.03;;;15.05
13304;BMP280;6720;51.958;4.540;2023-11-21T06:31:09;101287.47;;;15.15
13304;BMP280;6720;51.958;4.540;2023-11-21T06:33:36;101289.34;;;15.12
13304;BMP280;6720;51.958;4.540;2023-11-21T06:36:01;101286.88;;;15.06
13304;BMP280;6720;51.958;4.540;2023-11-21T06:38:31;101294.66;;;15.10
13304;BMP280;6720;51.958;4.540;2023-11-21T06:40:58;101290.22;;;15.12
13304;BMP280;6720;51.958;4.540;2023-11-21T06:43:23;101307.81;;;15.12
13304;BMP280;6720;51.958;4.540;2023-11-21T06:45:49;101303.56;;;15.06
13304;BMP280;6720;51.958;4.540;2023-11-21T06:48:14;101315.31;;;14.95
13304;BMP280;6720;51.958;4.540;2023-11-21T06:50:40;101311.06;;;14.89
13304;BMP280;6720;51.958;4.540;2023-11-21T06:53:07;101323.47;;;14.86
13304;BMP280;6720;51.958;4.540;2023-11-21T06:55:33;101327.13;;;14.80
13304;BMP280;6720;51.958;4.540;2023-11-21T06:57:59;101332.50;;;14.75
13304;BMP280;6720;51.958;4.540;2023-11-21T07:00:25;101335.25;;;14.73
13304;BMP280;6720;51.958;4.540;2023-11-21T07:02:53;101338.63;;;14.77
13304;BMP280;6720;51.958;4.540;2023-11-21T07:05:20;101346.59;;;14.74
13304;BMP280;6720;51.958;4.540;2023-11-21T07:07:46;101337.34;;;14.60
13304;BMP280;6720;51.958;4.540;2023-11-21T07:10:13;101353.25;;;14.55
13304;BMP280;6720;51.958;4.540;2023-11-21T07:12:39;101340.91;;;14.57
13304;BMP280;6720;51.958;4.540;2023-11-21T07:15:06;101347.91;;;14.58
13304;BMP280;6720;51.958;4.540;2023-11-21T07:17:34;101352.19;;;14.62
13304;BMP280;6720;51.958;4.540;2023-11-21T07:20:01;101354.75;;;14.65
13304;BMP280;6720;51.958;4.540;2023-11-21T07:22:26;101357.25;;;14.70
13304;BMP280;6720;51.958;4.540;2023-11-21T07:24:51;101366.72;;;14.78
13304;BMP280;6720;51.958;4.540;2023-11-21T07:27:17;101375.28;;;14.87
13304;BMP280;6720;51.958;4.540;2023-11-21T07:29:43;101378.91;;;14.82
13304;BMP280;6720;51.958;4.540;2023-11-21T07:32:08;101384.16;;;14.82
13304;BMP280;6720;51.958;4.540;2023-11-21T07:34:35;101385.16;;;14.78
13304;BMP280;6720;51.958;4.540;2023-11-21T07:37:01;101386.84;;;14.81
13304;BMP280;6720;51.958;4.540;2023-11-21T07:39:27;101406.78;;;14.93
13304;BMP280;6720;51.958;4.540;2023-11-21T07:41:52;101396.31;;;14.90
13304;BMP280;6720;51.958;4.540;2023-11-21T07:44:18;101399.53;;;15.01
13304;BMP280;6720;51.958;4.540;2023-11-21T07:46:45;101405.63;;;15.03
13304;BMP280;6720;51.958;4.540;2023-11-21T07:49:11;101408.41;;;14.97
13304;BMP280;6720;51.958;4.540;2023-11-21T07:51:37;101416.84;;;15.11
13304;BMP280;6720;51.958;4.540;2023-11-21T07:54:02;101420.91;;;15.22
13304;BMP280;6720;51.958;4.540;2023-11-21T07:56:27;101425.25;;;15.25
13304;BMP280;6720;51.958;4.540;2023-11-21T07:58:53;101423.44;;;15.27
13304;BMP280;6720;51.958;4.540;2023-11-21T08:01:19;101427.00;;;15.26
13304;BMP280;6720;51.958;4.540;2023-11-21T08:03:44;101433.34;;;15.19
13304;BMP280;6720;51.958;4.540;2023-11-21T08:06:10;101440.97;;;15.29
13304;BMP280;6720;51.958;4.540;2023-11-21T08:08:35;101440.63;;;15.43
13304;BMP280;6720;51.958;4.540;2023-11-21T08:11:01;101442.44;;;15.41
13304;BMP280;6720;51.958;4.540;2023-11-21T08:13:28;101450.34;;;15.42
13304;BMP280;6720;51.958;4.540;2023-11-21T08:15:54;101448.38;;;15.49
13304;BMP280;6720;51.958;4.540;2023-11-21T08:18:19;101452.66;;;15.53
13304;BMP280;6720;51.958;4.540;2023-11-21T08:20:45;101460.41;;;15.59
13304;BMP280;6720;51.958;4.540;2023-11-21T08:23:16;101461.31;;;15.58
13304;BMP280;6720;51.958;4.540;2023-11-21T08:25:45;101463.84;;;15.62
13304;BMP280;6720;51.958;4.540;2023-11-21T08:28:11;101466.50;;;15.61
13304;BMP280;6720;51.958;4.540;2023-11-21T08:30:37;101463.94;;;15.58
13304;BMP280;6720;51.958;4.540;2023-11-21T08:33:03;101463.16;;;15.56
13304;BMP280;6720;51.958;4.540;2023-11-21T08:35:29;101463.31;;;15.50
13304;BMP280;6720;51.958;4.540;2023-11-21T08:37:55;101466.44;;;15.64
13304;BMP280;6720;51.958;4.540;2023-11-21T08:40:21;101462.81;;;15.68
13304;BMP280;6720;51.958;4.540;2023-11-21T08:42:47;101471.44;;;15.73
13304;BMP280;6720;51.958;4.540;2023-11-21T08:45:14;101464.13;;;15.52
13304;BMP280;6720;51.958;4.540;2023-11-21T08:47:39;101472.38;;;15.72
13304;BMP280;6720;51.958;4.540;2023-11-21T08:50:06;101458.97;;;15.78
13304;BMP280;6720;51.958;4.540;2023-11-21T08:52:33;101464.69;;;15.93
13304;BMP280;6720;51.958;4.540;2023-11-21T08:54:59;101466.53;;;15.91
13304;BMP280;6720;51.958;4.540;2023-11-21T08:57:27;101471.09;;;16.15
13304;BMP280;6720;51.958;4.540;2023-11-21T08:59:53;101478.22;;;16.41
13304;BMP280;6720;51.958;4.540;2023-11-21T09:02:21;101486.53;;;16.58
13304;BMP280;6720;51.958;4.540;2023-11-21T09:04:48;101484.53;;;16.66
13304;BMP280;6720;51.958;4.540;2023-11-21T09:07:14;101491.44;;;16.42
13304;BMP280;6720;51.958;4.540;2023-11-21T09:09:39;101496.63;;;16.45
13304;BMP280;6720;51.958;4.540;2023-11-21T09:12:05;101508.66;;;16.25
13304;BMP280;6720;51.958;4.540;2023-11-21T09:14:31;101508.06;;;16.46
13304;BMP280;6720;51.958;4.540;2023-11-21T09:16:56;101512.91;;;16.30
13304;BMP280;6720;51.958;4.540;2023-11-21T09:19:21;101516.34;;;16.32
13304;BMP280;6720;51.958;4.540;2023-11-21T09:21:47;101514.41;;;16.10
13304;BMP280;6720;51.958;4.540;2023-11-21T09:24:12;101514.47;;;16.07
13304;BMP280;6720;51.958;4.540;2023-11-21T09:26:38;101524.59;;;16.22
13304;BMP280;6720;51.958;4.540;2023-11-21T09:29:03;101532.53;;;16.22
13304;BMP280;6720;51.958;4.540;2023-11-21T09:31:28;101528.44;;;16.12
13304;BMP280;6720;51.958;4.540;2023-11-21T09:33:54;101553.34;;;16.03
13304;BMP280;6720;51.958;4.540;2023-11-21T09:36:19;101542.97;;;15.96
13304;BMP280;6720;51.958;4.540;2023-11-21T09:38:48;101549.81;;;16.03
13304;BMP280;6720;51.958;4.540;2023-11-21T09:41:25;101553.03;;;16.14
13304;BMP280;6720;51.958;4.540;2023-11-21T09:43:54;101550.81;;;15.99
13304;BMP280;6720;51.958;4.540;2023-11-21T09:46:23;101563.06;;;16.01
13304;BMP280;6720;51.958;4.540;2023-11-21T09:48:51;101559.47;;;16.04
13304;BMP280;6720;51.958;4.540;2023-11-21T09:51:23;101577.03;;;16.06
13304;BMP280;6720;51.958;4.540;2023-11-21T09:53:55;101570.88;;;16.06
13304;BMP280;6720;51.958;4.540;2023-11-21T09:56:23;101581.38;;;16.09
13304;BMP280;6720;51.958;4.540;2023-11-21T09:58:53;101589.66;;;15.95
13304;BMP280;6720;51.958;4.540;2023-11-21T10:01:19;101592.88;;;16.06
13304;BMP280;6720;51.958;4.540;2023-11-21T10:03:46;101593.03;;;16.00
13304;BMP280;6720;51.958;4.540;2023-11-21T10:06:13;101601.91;;;15.98
13304;BMP280;6720;51.958;4.540;2023-11-21T10:08:40;101604.28;;;16.07
13304;BMP280;6720;51.958;4.540;2023-11-21T10:11:08;101607.94;;;16.03
13304;BMP280;6720;51.958;4.540;2023-11-21T10:13:37;101614.06;;;16.05
13304;BMP280;6720;51.958;4.540;2023-11-21T10:16:04;101620.81;;;16.15
13304;BMP280;6720;51.958;4.540;2023-11-21T10:18:32;101621.94;;;16.06
13304;BMP280;6720;51.958;4.540;2023-11-21T10:20:59;101637.97;;;15.99
13304;BMP280;6720;51.958;4.540;2023-11-21T10:23:25;101628.25;;;16.01
13304;BMP280;6720;51.958;4.540;2023-11-21T10:25:51;101642.34;;;16.00
13304;BMP280;6720;51.958;4.540;2023-11-21T10:28:17;101645.81;;;16.02
13304;BMP280;6720;51.958;4.540;2023-11-21T10:30:42;101643.72;;;15.81
13304;BMP280;6720;51.958;4.540;2023-11-21T10:33:09;101642.91;;;15.79
13304;BMP280;6720;51.958;4.540;2023-11-21T10:38:07;101651.69;;;15.79
13304;BMP280;6720;51.958;4.540;2023-11-21T10:40:38;101662.34;;;15.76
13304;BMP280;6720;51.958;4.540;2023-11-21T10:43:08;101667.47;;;15.82
13304;BMP280;6720;51.958;4.540;2023-11-21T10:45:36;101675.09;;;15.93
13304;BMP280;6720;51.958;4.540;2023-11-21T10:48:05;101671.56;;;15.94
13304;BMP280;6720;51.958;4.540;2023-11-21T10:50:33;101673.84;;;16.07
13304;BMP280;6720;51.958;4.540;2023-11-21T10:53:04;101668.69;;;16.03
13304;BMP280;6720;51.958;4.540;2023-11-21T10:55:30;101681.56;;;16.15
13304;BMP280;6720;51.958;4.540;2023-11-21T10:57:58;101686.56;;;15.92
13304;BMP280;6720;51.958;4.540;2023-11-21T11:00:26;101681.03;;;16.02
13304;BMP280;6720;51.958;4.540;2023-11-21T11:02:52;101684.47;;;16.06
13304;BMP280;6720;51.958;4.540;2023-11-21T11:05:23;101676.28;;;16.15
13304;BMP280;6720;51.958;4.540;2023-11-21T11:08:12;101681.25;;;15.93
13304;BMP280;6720;51.958;4.540;2023-11-21T11:10:38;101677.28;;;16.11
13304;BMP280;6720;51.958;4.540;2023-11-21T11:13:04;101687.25;;;16.00
13304;BMP280;6720;51.958;4.540;2023-11-21T11:15:31;101689.22;;;15.92
13304;BMP280;6720;51.958;4.540;2023-11-21T11:17:57;101688.56;;;15.84
13304;BMP280;6720;51.958;4.540;2023-11-21T11:20:25;101687.34;;;15.97
13304;BMP280;6720;51.958;4.540;2023-11-21T11:28:12;101688.19;;;15.97
13304;BMP280;6720;51.958;4.540;2023-11-21T11:31:03;101684.84;;;15.91
13304;BMP280;6720;51.958;4.540;2023-11-21T11:33:53;101687.34;;;15.97
13304;BMP280;6720;51.958;4.540;2023-11-21T11:36:37;101691.88;;;15.92
13304;BMP280;6720;51.958;4.540;2023-11-21T11:39:33;101691.81;;;15.93
13304;BMP280;6720;51.958;4.540;2023-11-21T11:42:02;101697.56;;;15.75
13304;BMP280;6720;51.958;4.540;2023-11-21T11:47:43;101705.31;;;15.83
13304;BMP280;6720;51.958;4.540;2023-11-21T11:50:11;101711.25;;;15.91
13304;BMP280;6720;51.958;4.540;2023-11-21T11:52:52;101702.06;;;16.05
13304;BMP280;6720;51.958;4.540;2023-11-21T11:55:32;101708.00;;;16.15
13304;BMP280;6720;51.958;4.540;2023-11-21T11:57:58;101717.94;;;16.05
13304;BMP280;6720;51.958;4.540;2023-11-21T12:02:58;101710.44;;;16.22
13304;BMP280;6720;51.958;4.540;2023-11-21T12:05:33;101729.44;;;16.03
13304;BMP280;6720;51.958;4.540;2023-11-21T12:08:07;101729.81;;;15.88
13304;BMP280;6720;51.958;4.540;2023-11-21T12:10:34;101731.91;;;16.10
13304;BMP280;6720;51.958;4.540;2023-11-21T12:13:02;101727.59;;;16.06
13304;BMP280;6720;51.958;4.540;2023-11-21T12:15:28;101739.69;;;16.15
13304;BMP280;6720;51.958;4.540;2023-11-21T12:17:56;101740.81;;;16.06
13304;BMP280;6720;51.958;4.540;2023-11-21T12:20:24;101739.88;;;16.09
13304;BMP280;6720;51.958;4.540;2023-11-21T12:22:58;101758.22;;;16.13
13304;BMP280;6720;51.958;4.540;2023-11-21T12:25:27;101749.56;;;16.08
13304;BMP280;6720;51.958;4.540;2023-11-21T12:28:00;101751.91;;;15.85
13304;BMP280;6720;51.958;4.540;2023-11-21T12:30:28;101739.41;;;15.92
13304;BMP280;6720;51.958;4.540;2023-11-21T12:32:57;101751.56;;;15.99
13304;BMP280;6720;51.958;4.540;2023-11-21T12:35:27;101752.47;;;15.98
13304;BMP280;6720;51.958;4.540;2023-11-21T12:37:54;101768.25;;;16.01
13304;BMP280;6720;51.958;4.540;2023-11-21T12:40:22;101767.09;;;15.76
13304;BMP280;6720;51.958;4.540;2023-11-21T12:42:51;101768.38;;;15.95
13304;BMP280;6720;51.958;4.540;2023-11-21T12:47:43;101777.41;;;15.85
13304;BMP280;6720;51.958;4.540;2023-11-21T12:50:10;101766.66;;;15.94
13304;BMP280;6720;51.958;4.540;2023-11-21T12:52:46;101776.06;;;16.04
13304;BMP280;6720;51.958;4.540;2023-11-21T12:55:22;101780.66;;;15.97
13304;BMP280;6720;51.958;4.540;2023-11-21T12:57:49;101785.72;;;16.06
13304;BMP280;6720;51.958;4.540;2023-11-21T13:00:20;101785.72;;;16.06
13304;BMP280;6720;51.958;4.540;2023-11-21T13:02:54;101794.44;;;16.10
13304;BMP280;6720;51.958;4.540;2023-11-21T13:05:29;101793.59;;;16.08
13304;BMP280;6720;51.958;4.540;2023-11-21T13:07:57;101801.25;;;16.20
13304;BMP280;6720;51.958;4.540;2023-11-21T13:10:27;101792.41;;;16.21
13304;BMP280;6720;51.958;4.540;2023-11-21T13:12:59;101801.84;;;15.94
13304;BMP280;6720;51.958;4.540;2023-11-21T13:15:26;101808.38;;;16.15
13304;BMP280;6720;51.958;4.540;2023-11-21T13:17:52;101793.78;;;16.00
13304;BMP280;6720;51.958;4.540;2023-11-21T13:20:19;101795.81;;;16.24
13304;BMP280;6720;51.958;4.540;2023-11-21T13:22:48;101799.84;;;16.40
13304;BMP280;6720;51.958;4.540;2023-11-21T13:25:17;101791.84;;;16.43
13304;BMP280;6720;51.958;4.540;2023-11-21T13:27:44;101804.13;;;16.46
13304;BMP280;6720;51.958;4.540;2023-11-21T13:30:14;101800.69;;;16.41
13304;BMP280;6720;51.958;4.540;2023-11-21T13:32:44;101806.03;;;16.38
13304;BMP280;6720;51.958;4.540;2023-11-21T13:35:15;101811.59;;;16.27
13304;BMP280;6720;51.958;4.540;2023-11-21T13:37:54;101818.59;;;16.30
13304;BMP280;6720;51.958;4.540;2023-11-21T13:40:22;101811.81;;;16.20
13304;BMP280;6720;51.958;4.540;2023-11-21T13:42:54;101825.16;;;16.14
13304;BMP280;6720;51.958;4.540;2023-11-21T13:45:23;101818.75;;;16.24
13304;BMP280;6720;51.958;4.540;2023-11-21T13:47:49;101818.44;;;16.36
13304;BMP280;6720;51.958;4.540;2023-11-21T13:50:18;101824.78;;;16.29
13304;BMP280;6720;51.958;4.540;2023-11-21T13:52:48;101827.19;;;16.38
13304;BMP280;6720;51.958;4.540;2023-11-21T13:55:14;101825.63;;;16.31
13304;BMP280;6720;51.958;4.540;2023-11-21T13:57:43;101834.31;;;16.36
13304;BMP280;6720;51.958;4.540;2023-11-21T14:00:12;101833.03;;;16.17
13304;BMP280;6720;51.958;4.540;2023-11-21T14:02:58;101838.97;;;16.25
13304;BMP280;6720;51.958;4.540;2023-11-21T14:05:28;101851.28;;;16.26
13304;BMP280;6720;51.958;4.540;2023-11-21T14:07:55;101855.22;;;16.08
13304;BMP280;6720;51.958;4.540;2023-11-21T14:10:22;101865.81;;;16.07
13304;BMP280;6720;51.958;4.540;2023-11-21T14:12:50;101861.34;;;16.12
13304;BMP280;6720;51.958;4.540;2023-11-21T14:15:15;101874.72;;;16.03
13304;BMP280;6720;51.958;4.540;2023-11-21T14:17:44;101876.03;;;15.84
13304;BMP280;6720;51.958;4.540;2023-11-21T14:20:10;101882.94;;;15.91
13304;BMP280;6720;51.958;4.540;2023-11-21T14:22:46;101881.13;;;15.93
13304;BMP280;6720;51.958;4.540;2023-11-21T14:25:12;101880.94;;;16.02